createdAt,value
2018-07-07T00:00:56.038Z,16.50
2018-07-07T00:03:24.295Z,16.50
2018-07-07T00:05:52.571Z,16.50
2018-07-07T00:08:20.890Z,16.50
2018-07-07T00:10:54.899Z,16.50
2018-07-07T00:13:23.457Z,16.50
2018-07-07T00:15:51.750Z,16.40
2018-07-07T00:18:20.042Z,16.40
2018-07-07T00:20:48.336Z,16.50
2018-07-07T00:23:16.642Z,16.40
2018-07-07T00:25:44.927Z,16.40
2018-07-07T00:28:13.217Z,16.40
2018-07-07T00:33:09.543Z,16.40
2018-07-07T00:35:37.846Z,16.40
2018-07-07T00:38:06.747Z,16.50
2018-07-07T00:40:35.024Z,16.50
2018-07-07T00:43:03.331Z,16.50
2018-07-07T00:47:59.637Z,16.60
2018-07-07T00:50:27.915Z,16.60
2018-07-07T00:52:56.211Z,16.60
2018-07-07T00:55:24.495Z,16.60
2018-07-07T00:57:52.759Z,16.70
2018-07-07T01:00:22.016Z,16.70
2018-07-07T01:05:29.630Z,16.80
2018-07-07T01:07:57.925Z,16.80
2018-07-07T01:12:54.210Z,16.80
2018-07-07T01:15:22.495Z,16.80
2018-07-07T01:17:50.786Z,16.80
2018-07-07T01:20:19.079Z,16.80
2018-07-07T01:22:47.346Z,16.80
2018-07-07T01:25:15.594Z,16.90
2018-07-07T01:27:43.857Z,16.90
2018-07-07T01:30:12.133Z,16.90
2018-07-07T01:32:40.424Z,17.00
2018-07-07T01:35:08.696Z,17.00
2018-07-07T01:37:36.997Z,17.00
2018-07-07T01:42:33.322Z,17.00
2018-07-07T01:45:01.594Z,17.00
2018-07-07T01:47:29.868Z,17.00
2018-07-07T01:49:58.120Z,17.00
2018-07-07T01:52:26.380Z,17.10
2018-07-07T01:54:54.719Z,17.10
2018-07-07T01:57:22.975Z,17.10
2018-07-07T01:59:51.236Z,17.00
2018-07-07T02:02:19.519Z,17.00
2018-07-07T02:04:47.798Z,17.00
2018-07-07T02:07:16.091Z,17.00
2018-07-07T02:09:44.387Z,17.10
2018-07-07T02:12:12.668Z,17.10
2018-07-07T02:14:41.092Z,17.10
2018-07-07T02:17:09.388Z,17.20
2018-07-07T02:19:37.668Z,17.10
2018-07-07T02:22:05.978Z,17.10
2018-07-07T02:27:02.262Z,17.10
2018-07-07T02:29:30.542Z,17.10
2018-07-07T02:31:58.836Z,17.10
2018-07-07T02:34:27.124Z,16.90
2018-07-07T02:36:55.448Z,17.00
2018-07-07T02:39:23.708Z,17.00
2018-07-07T02:41:51.988Z,17.00
2018-07-07T02:44:20.256Z,17.00
2018-07-07T02:46:48.540Z,17.00
2018-07-07T02:49:16.833Z,16.90
2018-07-07T02:54:13.129Z,16.90
2018-07-07T02:56:41.399Z,16.90
2018-07-07T02:59:09.692Z,16.90
2018-07-07T03:01:37.989Z,16.90
2018-07-07T03:06:34.288Z,16.80
2018-07-07T03:09:02.596Z,16.90
2018-07-07T03:11:30.861Z,16.90
2018-07-07T03:13:59.175Z,16.90
2018-07-07T03:16:27.449Z,16.90
2018-07-07T03:18:55.753Z,16.90
2018-07-07T03:21:24.059Z,16.90
2018-07-07T03:23:52.324Z,16.90
2018-07-07T03:26:20.631Z,16.90
2018-07-07T03:28:48.904Z,16.90
2018-07-07T03:31:17.234Z,16.90
2018-07-07T03:33:45.545Z,16.90
2018-07-07T03:38:41.885Z,16.90
2018-07-07T03:41:10.199Z,16.80
2018-07-07T03:43:38.481Z,16.70
2018-07-07T03:46:06.803Z,16.70
2018-07-07T03:48:35.083Z,16.80
2018-07-07T03:51:03.371Z,16.70
2018-07-07T03:53:31.674Z,16.70
2018-07-07T03:55:59.949Z,16.80
2018-07-07T03:58:28.244Z,16.80
2018-07-07T04:00:56.532Z,16.80
2018-07-07T04:03:24.883Z,17.00
2018-07-07T04:05:53.242Z,17.00
2018-07-07T04:08:21.531Z,17.00
2018-07-07T04:10:49.840Z,17.10
2018-07-07T04:13:18.129Z,17.10
2018-07-07T04:15:46.416Z,17.20
2018-07-07T04:18:18.961Z,17.20
2018-07-07T04:20:47.402Z,17.30
2018-07-07T04:23:15.673Z,17.30
2018-07-07T04:25:43.969Z,17.30
2018-07-07T04:28:12.277Z,17.40
2018-07-07T04:30:40.604Z,17.50
2018-07-07T04:33:08.903Z,17.60
2018-07-07T04:35:37.205Z,17.70
2018-07-07T04:40:33.510Z,17.80
2018-07-07T04:43:01.811Z,17.90
2018-07-07T04:45:30.137Z,17.90
2018-07-07T04:50:26.460Z,17.90
2018-07-07T04:52:54.755Z,17.90
2018-07-07T04:55:23.150Z,18.00
2018-07-07T04:57:51.830Z,18.00
2018-07-07T05:00:20.111Z,18.00
2018-07-07T05:02:48.404Z,18.00
2018-07-07T05:05:17.295Z,18.00
2018-07-07T05:07:45.775Z,18.10
2018-07-07T05:10:14.662Z,18.10
2018-07-07T05:12:42.995Z,18.00
2018-07-07T05:15:11.303Z,18.00
2018-07-07T05:17:39.587Z,18.00
2018-07-07T05:20:07.940Z,18.00
2018-07-07T05:22:36.260Z,18.10
2018-07-07T05:25:04.667Z,18.10
2018-07-07T05:27:32.934Z,18.20
2018-07-07T05:30:01.321Z,18.30
2018-07-07T05:32:29.601Z,18.50
2018-07-07T05:37:25.971Z,18.70
2018-07-07T05:39:54.259Z,18.80
2018-07-07T05:42:22.559Z,18.90
2018-07-07T05:44:50.851Z,19.00
2018-07-07T05:49:47.116Z,19.20
2018-07-07T05:52:15.371Z,19.40
2018-07-07T05:54:43.650Z,19.50
2018-07-07T05:57:11.934Z,19.60
2018-07-07T05:59:40.198Z,19.70
2018-07-07T06:02:08.477Z,19.90
2018-07-07T06:04:36.759Z,20.00
2018-07-07T06:07:05.117Z,20.20
2018-07-07T06:09:33.432Z,20.40
2018-07-07T06:12:01.829Z,20.50
2018-07-07T06:14:30.169Z,20.70
2018-07-07T06:16:58.572Z,21.00
2018-07-07T06:19:26.872Z,21.10
2018-07-07T06:21:55.165Z,21.30
2018-07-07T06:24:23.444Z,21.40
2018-07-07T06:26:52.035Z,21.50
2018-07-07T06:29:20.276Z,21.50
2018-07-07T06:31:48.548Z,21.50
2018-07-07T06:34:16.832Z,21.40
2018-07-07T06:36:45.121Z,21.30
2018-07-07T06:39:13.420Z,21.40
2018-07-07T06:41:41.702Z,21.50
2018-07-07T06:44:10.019Z,21.60
2018-07-07T06:46:38.334Z,21.70
2018-07-07T06:49:06.640Z,21.80
2018-07-07T06:51:34.942Z,22.00
2018-07-07T06:54:03.358Z,22.10
2018-07-07T06:58:59.680Z,22.10
2018-07-07T07:01:27.934Z,21.90
2018-07-07T07:03:56.214Z,21.90
2018-07-07T07:06:24.552Z,21.80
2018-07-07T07:08:52.776Z,21.80
2018-07-07T07:11:21.077Z,21.90
2018-07-07T07:13:49.350Z,22.00
2018-07-07T07:16:17.680Z,22.10
2018-07-07T07:18:45.973Z,22.30
2018-07-07T07:21:14.248Z,22.30
2018-07-07T07:23:42.543Z,22.40
2018-07-07T07:28:38.878Z,22.60
2018-07-07T07:31:07.230Z,22.70
2018-07-07T07:33:35.528Z,22.80
2018-07-07T07:36:07.336Z,22.90
2018-07-07T07:38:35.612Z,23.00
2018-07-07T07:41:03.879Z,22.90
2018-07-07T07:43:32.373Z,22.80
2018-07-07T07:46:00.750Z,22.80
2018-07-07T07:48:29.036Z,22.90
2018-07-07T07:50:57.365Z,22.90
2018-07-07T07:53:25.641Z,22.90
2018-07-07T07:55:53.935Z,23.00
2018-07-07T07:58:22.220Z,23.00
2018-07-07T08:00:50.508Z,23.10
2018-07-07T08:03:18.840Z,23.20
2018-07-07T08:05:47.100Z,23.20
2018-07-07T08:08:15.378Z,23.40
2018-07-07T08:10:43.778Z,23.40
2018-07-07T08:13:12.155Z,23.50
2018-07-07T08:15:40.396Z,23.70
2018-07-07T08:18:08.680Z,23.70
2018-07-07T08:20:36.928Z,23.90
2018-07-07T08:25:33.253Z,23.90
2018-07-07T08:28:01.562Z,23.90
2018-07-07T08:30:29.848Z,23.90
2018-07-07T08:32:58.122Z,24.00
2018-07-07T08:35:26.409Z,24.00
2018-07-07T08:37:54.703Z,24.10
2018-07-07T08:42:50.963Z,24.20
2018-07-07T08:47:47.295Z,24.20
2018-07-07T08:50:15.616Z,24.30
2018-07-07T08:52:43.914Z,24.20
2018-07-07T08:55:12.231Z,24.40
2018-07-07T08:57:40.575Z,24.40
2018-07-07T09:00:08.844Z,24.40
2018-07-07T09:02:37.231Z,24.40
2018-07-07T09:07:33.602Z,24.50
2018-07-07T09:10:01.873Z,24.50
2018-07-07T09:12:30.141Z,24.50
2018-07-07T09:17:26.429Z,24.60
2018-07-07T09:19:54.739Z,24.60
2018-07-07T09:22:23.013Z,24.70
2018-07-07T09:24:51.291Z,24.80
2018-07-07T09:27:19.602Z,24.80
2018-07-07T09:29:47.875Z,24.80
2018-07-07T09:32:16.159Z,24.80
2018-07-07T09:34:44.438Z,24.90
2018-07-07T09:37:12.749Z,25.00
2018-07-07T09:39:41.061Z,25.10
2018-07-07T09:42:09.377Z,25.10
2018-07-07T09:44:37.639Z,25.20
2018-07-07T09:47:05.913Z,25.30
2018-07-07T09:49:34.209Z,25.30
2018-07-07T09:52:02.525Z,25.30
2018-07-07T09:54:30.811Z,25.30
2018-07-07T09:56:59.114Z,25.40
2018-07-07T09:59:27.472Z,25.40
2018-07-07T10:01:55.776Z,25.60
2018-07-07T10:04:24.068Z,25.60
2018-07-07T10:06:52.359Z,25.70
2018-07-07T10:09:20.667Z,25.70
2018-07-07T10:11:48.985Z,25.80
2018-07-07T10:16:45.278Z,26.00
2018-07-07T10:21:41.534Z,26.10
2018-07-07T10:26:37.872Z,26.00
2018-07-07T10:29:06.176Z,25.70
2018-07-07T10:34:02.472Z,25.20
2018-07-07T10:36:30.744Z,25.00
2018-07-07T10:38:59.012Z,24.80
2018-07-07T10:41:27.288Z,24.80
2018-07-07T10:46:23.639Z,24.90
2018-07-07T10:48:51.924Z,25.00
2018-07-07T10:51:20.179Z,25.10
2018-07-07T10:53:48.486Z,25.30
2018-07-07T10:58:44.811Z,25.60
2018-07-07T11:01:14.099Z,25.70
2018-07-07T11:06:13.440Z,26.00
2018-07-07T11:08:41.709Z,25.90
2018-07-07T11:11:10.029Z,25.80
2018-07-07T11:13:38.307Z,25.60
2018-07-07T11:16:06.690Z,25.40
2018-07-07T11:18:34.947Z,25.20
2018-07-07T11:21:03.252Z,25.00
2018-07-07T11:23:31.505Z,25.00
2018-07-07T11:25:59.750Z,25.00
2018-07-07T11:28:28.024Z,24.90
2018-07-07T11:33:24.364Z,25.20
2018-07-07T11:35:52.636Z,25.40
2018-07-07T11:38:20.998Z,25.50
2018-07-07T11:40:49.309Z,25.60
2018-07-07T11:43:17.624Z,25.80
2018-07-07T11:45:45.897Z,25.70
2018-07-07T11:48:14.180Z,25.80
2018-07-07T11:53:10.458Z,26.00
2018-07-07T11:55:38.749Z,26.00
2018-07-07T11:58:07.024Z,25.80
2018-07-07T12:00:35.296Z,25.60
2018-07-07T12:03:03.586Z,25.50
2018-07-07T12:05:31.877Z,25.30
2018-07-07T12:10:28.463Z,25.10
2018-07-07T12:12:56.848Z,25.10
2018-07-07T12:15:25.140Z,25.20
2018-07-07T12:17:53.699Z,25.20
2018-07-07T12:20:21.993Z,25.40
2018-07-07T12:22:50.290Z,25.50
2018-07-07T12:25:18.640Z,25.70
2018-07-07T12:27:46.930Z,25.70
2018-07-07T12:30:15.212Z,26.00
2018-07-07T12:32:43.512Z,26.10
2018-07-07T12:35:11.816Z,26.20
2018-07-07T12:37:40.079Z,26.30
2018-07-07T12:40:08.452Z,26.30
2018-07-07T12:42:36.709Z,26.40
2018-07-07T12:45:05.005Z,26.30
2018-07-07T12:47:33.289Z,26.30
2018-07-07T12:50:01.573Z,26.50
2018-07-07T12:52:29.842Z,26.60
2018-07-07T12:54:58.106Z,26.70
2018-07-07T12:59:54.710Z,26.80
2018-07-07T13:02:23.029Z,26.80
2018-07-07T13:04:51.328Z,26.80
2018-07-07T13:07:19.621Z,26.60
2018-07-07T13:09:47.950Z,26.50
2018-07-07T13:12:16.236Z,26.50
2018-07-07T13:17:12.524Z,26.50
2018-07-07T13:19:40.792Z,26.50
2018-07-07T13:22:09.140Z,26.50
2018-07-07T13:24:37.428Z,26.50
2018-07-07T13:27:05.891Z,26.50
2018-07-07T13:32:02.205Z,26.80
2018-07-07T13:34:30.681Z,26.80
2018-07-07T13:36:58.956Z,26.90
2018-07-07T13:39:27.261Z,27.00
2018-07-07T13:41:55.521Z,27.00
2018-07-07T13:44:23.792Z,26.90
2018-07-07T13:46:52.081Z,26.80
2018-07-07T13:49:20.361Z,26.70
2018-07-07T13:51:48.661Z,26.70
2018-07-07T13:54:16.965Z,26.70
2018-07-07T13:56:45.466Z,26.80
2018-07-07T13:59:13.805Z,26.80
2018-07-07T14:01:42.072Z,26.90
2018-07-07T14:04:10.350Z,27.00
2018-07-07T14:06:38.633Z,27.20
2018-07-07T14:09:07.523Z,27.40
2018-07-07T14:11:35.847Z,27.40
2018-07-07T14:14:04.158Z,27.50
2018-07-07T14:16:32.493Z,27.40
2018-07-07T14:19:00.783Z,27.40
2018-07-07T14:21:29.063Z,27.30
2018-07-07T14:23:57.394Z,27.30
2018-07-07T14:28:54.285Z,27.30
2018-07-07T14:31:22.573Z,27.30
2018-07-07T14:33:50.830Z,27.20
2018-07-07T14:38:47.144Z,27.00
2018-07-07T14:41:22.989Z,27.00
2018-07-07T14:43:58.886Z,27.10
2018-07-07T14:46:27.661Z,27.10
2018-07-07T14:48:55.969Z,27.20
2018-07-07T14:51:24.291Z,27.30
2018-07-07T14:53:52.573Z,27.40
2018-07-07T14:56:22.087Z,27.40
2018-07-07T14:58:50.731Z,27.40
2018-07-07T15:01:19.033Z,27.30
2018-07-07T15:06:15.437Z,27.20
2018-07-07T15:08:43.865Z,27.10
2018-07-07T15:11:12.339Z,27.00
2018-07-07T15:13:40.665Z,26.90
2018-07-07T15:16:08.951Z,26.90
2018-07-07T15:18:37.375Z,26.90
2018-07-07T15:21:06.009Z,26.90
2018-07-07T15:23:34.298Z,26.90
2018-07-07T15:26:02.709Z,26.90
2018-07-07T15:28:30.962Z,26.90
2018-07-07T15:30:59.274Z,27.00
2018-07-07T15:33:27.569Z,27.10
2018-07-07T15:35:55.868Z,27.20
2018-07-07T15:38:24.177Z,27.30
2018-07-07T15:40:52.533Z,27.40
2018-07-07T15:43:20.843Z,27.50
2018-07-07T15:45:49.168Z,27.50
2018-07-07T15:48:17.429Z,27.60
2018-07-07T15:50:45.744Z,27.70
2018-07-07T15:53:14.015Z,27.70
2018-07-07T15:55:42.303Z,27.60
2018-07-07T15:58:10.623Z,27.60
2018-07-07T16:00:38.907Z,27.40
2018-07-07T16:03:07.190Z,27.40
2018-07-07T16:05:35.442Z,27.40
2018-07-07T16:08:03.776Z,27.40
2018-07-07T16:13:00.054Z,27.40
2018-07-07T16:15:28.468Z,27.30
2018-07-07T16:17:56.873Z,27.10
2018-07-07T16:20:25.216Z,26.90
2018-07-07T16:22:53.848Z,26.70
2018-07-07T16:25:22.113Z,26.50
2018-07-07T16:30:18.400Z,26.20
2018-07-07T16:32:46.678Z,26.10
2018-07-07T16:35:15.008Z,26.10
2018-07-07T16:37:43.301Z,26.20
2018-07-07T16:40:11.657Z,26.30
2018-07-07T16:42:40.547Z,26.30
2018-07-07T16:45:08.837Z,26.30
2018-07-07T16:47:37.650Z,26.30
2018-07-07T16:50:05.958Z,26.30
2018-07-07T16:52:34.253Z,26.30
2018-07-07T16:55:02.568Z,26.30
2018-07-07T16:57:30.835Z,26.40
2018-07-07T16:59:59.365Z,26.40
2018-07-07T17:02:28.042Z,26.40
2018-07-07T17:04:56.347Z,26.50
2018-07-07T17:07:24.673Z,26.80
2018-07-07T17:09:53.000Z,27.10
2018-07-07T17:12:21.409Z,27.50
2018-07-07T17:14:49.692Z,27.90
2018-07-07T17:17:17.995Z,28.20
2018-07-07T17:19:46.341Z,28.40
2018-07-07T17:22:14.678Z,28.40
2018-07-07T17:24:43.336Z,28.40
2018-07-07T17:27:11.608Z,28.30
2018-07-07T17:29:39.895Z,28.30
2018-07-07T17:32:08.260Z,28.30
2018-07-07T17:34:36.572Z,28.50
2018-07-07T17:37:05.371Z,28.50
2018-07-07T17:39:33.678Z,28.60
2018-07-07T17:42:01.948Z,28.70
2018-07-07T17:44:30.283Z,28.80
2018-07-07T17:46:59.475Z,28.80
2018-07-07T17:49:27.880Z,28.90
2018-07-07T17:51:56.181Z,29.00
2018-07-07T17:54:24.520Z,29.10
2018-07-07T17:59:21.400Z,28.80
2018-07-07T18:01:49.758Z,28.80
2018-07-07T18:04:18.130Z,28.80
2018-07-07T18:06:46.416Z,28.80
2018-07-07T18:09:14.689Z,28.60
2018-07-07T18:11:43.042Z,28.40
2018-07-07T18:14:11.229Z,28.00
2018-07-07T18:16:39.494Z,27.60
2018-07-07T18:19:07.835Z,27.40
2018-07-07T18:21:36.047Z,27.20
2018-07-07T18:24:04.391Z,26.90
2018-07-07T18:26:32.692Z,26.60
2018-07-07T18:31:28.973Z,26.00
2018-07-07T18:33:57.240Z,25.80
2018-07-07T18:38:53.508Z,25.40
2018-07-07T18:41:21.814Z,25.20
2018-07-07T18:43:50.099Z,25.00
2018-07-07T18:46:18.380Z,24.80
2018-07-07T18:48:46.698Z,24.70
2018-07-07T18:51:14.936Z,24.60
2018-07-07T18:53:43.224Z,24.50
2018-07-07T18:56:11.528Z,24.30
2018-07-07T18:58:39.806Z,24.20
2018-07-07T19:01:08.117Z,24.10
2018-07-07T19:03:36.388Z,23.90
2018-07-07T19:06:04.671Z,23.80
2018-07-07T19:08:33.022Z,23.70
2018-07-07T19:11:01.338Z,23.60
2018-07-07T19:13:29.634Z,23.50
2018-07-07T19:15:57.904Z,23.40
2018-07-07T19:18:26.204Z,23.30
2018-07-07T19:23:33.113Z,23.10
2018-07-07T19:26:06.814Z,23.00
2018-07-07T19:28:35.114Z,22.90
2018-07-07T19:31:03.392Z,22.80
2018-07-07T19:33:37.066Z,22.70
2018-07-07T19:36:10.824Z,22.60
2018-07-07T19:38:39.116Z,22.60
2018-07-07T19:41:07.384Z,22.50
2018-07-07T19:43:35.692Z,22.40
2018-07-07T19:46:04.063Z,22.30
2018-07-07T19:48:32.275Z,22.30
2018-07-07T19:51:00.600Z,22.20
2018-07-07T19:53:28.849Z,22.10
2018-07-07T19:55:57.159Z,22.00
2018-07-07T20:00:53.501Z,21.90
2018-07-07T20:03:21.793Z,21.80
2018-07-07T20:05:50.076Z,21.70
2018-07-07T20:08:18.357Z,21.70
2018-07-07T20:10:46.616Z,21.60
2018-07-07T20:13:14.933Z,21.50
2018-07-07T20:15:54.489Z,21.40
2018-07-07T20:18:31.961Z,21.30
2018-07-07T20:21:17.088Z,21.20
2018-07-07T20:23:45.484Z,21.20
2018-07-07T20:26:13.776Z,21.10
2018-07-07T20:28:47.348Z,21.00
2018-07-07T20:31:15.716Z,20.90
2018-07-07T20:33:43.980Z,20.90
2018-07-07T20:36:12.429Z,20.80
2018-07-07T20:38:40.772Z,20.70
2018-07-07T20:41:09.132Z,20.70
2018-07-07T20:43:37.405Z,20.60
2018-07-07T20:48:33.709Z,20.50
2018-07-07T20:51:01.978Z,20.40
2018-07-07T20:53:30.279Z,20.30
2018-07-07T20:55:58.641Z,20.20
2018-07-07T20:58:27.044Z,20.00
2018-07-07T21:00:55.408Z,20.00
2018-07-07T21:03:23.684Z,19.80
2018-07-07T21:05:51.973Z,19.70
2018-07-07T21:08:20.270Z,19.70
2018-07-07T21:10:48.571Z,19.50
2018-07-07T21:13:16.864Z,19.40
2018-07-07T21:15:45.157Z,19.30
2018-07-07T21:18:13.440Z,19.20
2018-07-07T21:20:41.725Z,19.20
2018-07-07T21:23:09.979Z,19.10
2018-07-07T21:25:38.302Z,19.00
2018-07-07T21:30:34.676Z,19.00
2018-07-07T21:33:02.971Z,18.90
2018-07-07T21:35:31.291Z,18.80
2018-07-07T21:37:59.601Z,18.80
2018-07-07T21:42:55.925Z,18.70
2018-07-07T21:45:24.213Z,18.60
2018-07-07T21:47:52.504Z,18.60
2018-07-07T21:50:20.817Z,18.50
2018-07-07T21:55:17.179Z,18.40
2018-07-07T22:02:06.733Z,18.30
2018-07-07T22:04:40.445Z,18.30
2018-07-07T22:07:14.307Z,18.20
2018-07-07T22:09:43.505Z,18.20
2018-07-07T22:12:11.832Z,18.20
2018-07-07T22:14:40.120Z,18.20
2018-07-07T22:17:08.415Z,18.10
2018-07-07T22:19:36.741Z,18.00
2018-07-07T22:22:06.966Z,18.00
2018-07-07T22:24:35.556Z,18.00
2018-07-07T22:27:05.769Z,17.90
2018-07-07T22:29:34.114Z,17.90
2018-07-07T22:32:04.814Z,17.90
2018-07-07T22:34:35.468Z,17.90
2018-07-07T22:37:03.823Z,17.90
2018-07-07T22:39:34.721Z,18.00
2018-07-07T22:42:03.980Z,17.90
2018-07-07T22:44:32.931Z,17.90
2018-07-07T22:47:01.228Z,17.90
2018-07-07T22:51:58.093Z,17.70
2018-07-07T22:54:26.384Z,17.70
2018-07-07T22:59:22.704Z,17.60
2018-07-07T23:01:50.985Z,17.60
2018-07-07T23:04:19.258Z,17.50
2018-07-07T23:09:16.714Z,17.40
2018-07-07T23:11:45.020Z,17.30
2018-07-07T23:14:13.329Z,17.30
2018-07-07T23:16:41.655Z,17.30
2018-07-07T23:19:09.983Z,17.20
2018-07-07T23:21:38.286Z,17.20
2018-07-07T23:24:06.796Z,17.20
2018-07-07T23:26:35.045Z,17.20
2018-07-07T23:29:03.893Z,17.20
2018-07-07T23:31:32.213Z,17.20
2018-07-07T23:34:00.509Z,17.10
2018-07-07T23:36:28.805Z,17.10
2018-07-07T23:38:57.108Z,17.00
2018-07-07T23:41:25.417Z,17.00
2018-07-07T23:43:53.754Z,16.90
2018-07-07T23:46:22.059Z,16.90
2018-07-07T23:53:46.433Z,16.90
2018-07-07T23:58:42.753Z,16.80
